Decoded Metar for KLWC (LAWRENCE in KS, USA) (IATA:LWC) | Meteo·Mobile Aviation Weather
aviador You're here:

KLWC Decoded Metar

LAWRENCE in KS, USA
Report Time2018-09-18 12:52:00
UTC Time2018-09-18 13:13:21
Flight Rules vfr VFR
Wind090° at 04 kt
W.Decomp.*RWY 15: 1.8 kt HW 3.6 kt LCW
RWY 01: 1.0 kt HW 3.9 kt RCW
W.Rank090° ranks 16
Current wind is below 090° avg. (5.8)
Visibility9999 m
Phenomena:N/A
Clouds:N/A
Expected CloudBase > 400 ft AGL from Temp-Dew spread
CeilingNone
Temp22°C (ISA +9)
Dew Point21°C (94% RH)
QNH1015 hPa
Density Alt2,103 ft
Elevation830 ft
Report Wrong Elevation
Raw Report
KLWC 181252Z AUTO 09004KT 7SM CLR 22/21 A2996 RMK AO2 SLP139
T02170206=

Extra information for KLWC:More info

Metar Taf Metar & Taf Last 4 Metars F.Rules Stats Wind Profile Meteogram Temp Stats Airport Information Weather charts Add Link Nearby VenuesMetar ALERT Operation Metar Decoded Social comments

AIRNAV info for KLWC
GUT Works, LLC